KSHD/SHD METAR and TAF weather

Enter ICAO airport designator
Station Type Date Time Source
KSHD METAR 2018/12/19 03:15 UTC NOAA

KSHD 190315Z AUTO 00000KT 10SM CLR M03/M05 A3017 RMK AO2 T10351048


Station Type Date Time Source
KSHD Decoded METAR 2018/12/19 03:15 UTC NOAA

Staunton / Shenandoah, VA, United States (KSHD) 38-16N 078-54W
Dec 18, 2018 - 10:15 PM EST / 2018.12.19 0315 UTC
Wind: Calm:0
Visibility: 10 mile(s):0
Sky conditions: clear
Temperature: 25.7 F (-3.5 C)
Dew Point: 23.4 F (-4.8 C)
Relative Humidity: 90%
Pressure (altimeter): 30.17 in. Hg (1021 hPa)
ob: KSHD 190315Z AUTO 00000KT 10SM CLR M03/M05 A3017 RMK AO2 T10351048
cycle: 3

Station Type Date Time Source
KSHD TAF UTC NOAA

Error!


Example: see airport list